Wednesday, February 10, 2016
15:22 UTC
  |  Log In   |  Register Free
Airport Search:

Carmi Municipal Airport
(KCUL)

Carmi Municipal Airport Diagram
No Airport Diagram Available

FAA data valid effective Dec 10 2015 - Feb 4 2016 (unless otherwise noted).

 
 
 
 
 
 
 
 
 
 
 
 
 
 
Current Aviation Weather for KCUL

Weather Summary


The most recent METAR observation for CUL was updated at: 12:55 UTC
METAR for KCUL is not available. Closest METAR is for KFWC
KCUL  (most recent observation was updatred at 10:14 UTC)
101455Z AUTO 29012KT 10SM CLR M08/M14 A3019 RMK AO2 T10851138

KFWC  (22.1 nm SE)   (most recent observation was updated at 10:14 UTC)
101455Z AUTO 30007KT 10SM CLR M08/M14 A3018 RMK AO1 T10851144

KHSB  (26.2 nm NE)   (most recent observation was updated at 10:14 UTC)
101455Z AUTO 29009G16KT 10SM CLR M07/M13 A3021 RMK AO2 T10751126

TAF for KCUL is not available.
KEVV  (28.1 nm NW)   (most recent observation was updatred at 10:11 UTC)
101129Z 1012/1112 29010KT P6SM OVC035 FM101400 29010KT P6SM SKC FM110000 27004KT P6SM OVC120 FM110200 32005KT P6SM BKN025 OVC080


GlobalAir.com is loading additional information.
 Current Weather at CUL
15.0 F° (-9.5 C°)

West winds at 8.1 mph
Pressure:
30.17 in
Humidity:
73%
Wind:
West at 8.1 mph
Dew Point:
7.7 F° (-13.5 C°)
Visibility:
10.00 mi
CUL NOAA Radar




Find All Airport Services Find A Hotel Find A Rental Car Find A Golf Course Find A Restaurant $100 Hamburger



Airport Weather Forecast for KCUL

Translated METAR for KCUL (1455 UTC)
METAR:
KCUL 101455Z AUTO 29012KT 10SM CLR M08/M14 A3019 RMK AO2 T10851138
Conditions at:
KCUL (Carmi Muni, IL) observed 1455 UTC 10 February 2016
Temperature:
-8°C (17.6°F)
Dewpoint:
-14°C (6.8°F) [RH = 62]
Pressure:
30.19 inches Hg (1022.4 mb)
Winds:
from the WNW (290 degrees) at 13.8 mph (12 knots: 6.2 m/s)
Visibility:
10 mile(s)
Ceiling:
at least 12,000 feet AGL
Clouds:
Clear below 12,000 feet AGL
Remarks:
site is un-manned
site is automated and HAS a precipitation sensor

Translated TAF for KEVV (Evansville Rgnl, IN) (1129 UTC)
TAF text:
KEVV 101129Z 1012/1112 29010KT P6SM OVC035
Forecast period:
Wednesday Feb 10 2016 12:00 UTC - Thursday Feb 11 2016 12:00 UTC
Forecast type:
FROM: standard forecast or significant change
Winds:
from the WNW (290 degrees) at 11.5 mph (10 knots: 5.1 m/s)
Visibility:
6 or more mile(s) (9.7+ km)
Ceiling:
3,500 feet AGL
Clouds:
Overcast Skies at 3,500 feet AGL
Weather:
no significant weather observed at this time
TAF text:
FM101400 29010KT P6SM SKC
Forecast period:
Wednesday Feb 10 2016 14:00 UTC - Thursday Feb 11 2016 00:00 UTC
Forecast type:
FROM: standard forecast or significant change
Winds:
from the WNW (290 degrees) at 11.5 mph (10 knots: 5.1 m/s)
Visibility:
6 or more mile(s) (9.7+ km)
Ceiling:
at least 12,000 feet AGL
Clouds:
Clear Skies
Weather:
no significant weather observed at this time
TAF text:
FM110000 27004KT P6SM OVC120
Forecast period:
Thursday Feb 11 2016 00:00 UTC - Thursday Feb 11 2016 02:00 UTC
Forecast type:
FROM: standard forecast or significant change
Winds:
from the W (270 degrees) at 4.6 mph (4 knots: 2.1 m/s)
Visibility:
6 or more mile(s) (9.7+ km)
Ceiling:
12,000 feet AGL
Clouds:
Overcast Skies at 12,000 feet AGL
Weather:
no significant weather observed at this time
TAF text:
FM110200 32005KT P6SM BKN025 OVC080
Forecast period:
Thursday Feb 11 2016 02:00 UTC - Thursday Feb 11 2016 12:00 UTC
Forecast type:
FROM: standard forecast or significant change
Winds:
from the NW (320 degrees) at 5.8 mph (5 knots: 2.6 m/s)
Visibility:
6 or more mile(s) (9.7+ km)
Ceiling:
2,500 feet AGL
Clouds:
Broken Cloud Cover at 2,500 feet AGL
Overcast Skies at 8,000 feet AGL
Weather:
no significant weather observed at this time
FBO's on the Field
FBO Company Facility Photos Services Transportation Aviation Fuel Prices: Prices include tax
Catering Weather Repair Courtesy Rental Type 100LL JetA JetA+ MOGAS 8087
 
Carmi Municipal Airport

This FBO has not yet been rated
FS:Shell
Last Updated: Feb-01
Login to update fuel prices
SS:
Contact Carmi Municipal AirportMore FBO Information
 
Add another FBO Facility Photos Catering Weather Repair Courtesy Rental Type 100LL JetA JetA+ MOGAS 8087
Services Transportation Aviation Fuel Prices: Prices include tax


model-print
model-print
model-print
model-print